Atwood, Kentucky
Current Conditions -  °F | °C
As of 2:52 AM on Saturday 20 Dec 2014 (Local Time) from KCVG Reporting Station
Overcast Overcast  
Wind Chill: 30°   Ceiling: 2100
Heat Index: 30°   Visibility: 10mi
Dew Point: 21°   Wind: 3mph
Humidity: 69%   Direction: 120°ESE
Pressure: 30.26"   Gusts: NA
Location:  38.8354°N, 84.5143°W
Report Text: KCVG 200752Z 12003KT 10SM OVC021 M01/M06 A3026 RMK AO2 SLP256 T10111061
Loading
Personal Weather Stations






























Interactive Weather Map New forecast layout! Learn more

10-Day Weather Forecast

Advertisements
Track Severe Weather on mobile